Flight Track Log - Related Links

Times and Time Zones

All times are in EDT time to prevent confusion due to time zone crossing. See the PDT4373 flight status page for this flight to view local times or setup timezone preferences in your user account.

Time Position Orientation Groundspeed Altitude Reporting Facility
EDT Latitude Longitude Course Direction KTS MPH feet Rate Location/Type
Tue 09:55:53 AM 39.8833 -75.2000 311° West 124 143 500  Level Philadelphia TRACON
Tue 09:56:17 AM 39.9000 -75.1833 37° Northeast 124 143 1,400 1,765 Climbing Philadelphia TRACON
Tue 09:57:18 AM 39.9167 -75.1667 37° Northeast 135 155 3,000 1,488 Climbing Philadelphia TRACON
Tue 09:58:00 AM 40.0975 -75.3098 311° West  Level Estimated
Tue 09:58:18 AM 39.9667 -75.1833 346° North 152 175 4,400  Level Philadelphia TRACON
Tue 09:59:00 AM 40.1725 -75.3328 311° West  Level Estimated
Tue 09:59:18 AM 40.0000 -75.2167 323° Northwest 150 173 6,000  Level Philadelphia TRACON
Tue 10:00:00 AM 40.2079 -75.4225 297° West  Level FlightAware Approximate
Tue 10:00:18 AM 40.0333 -75.2333 339° North 150 173 7,400  Level Philadelphia TRACON
Tue 10:01:00 AM 40.2834 -75.4429 311° West  Level Estimated
Tue 10:01:18 AM 40.0833 -75.2500 346° North 158 182 8,600  Level Philadelphia TRACON
Tue 10:02:18 AM 40.1167 -75.2833 323° Northwest 213 245 9,000 258 Climbing Philadelphia TRACON
Tue 10:02:51 AM 40.1258 -75.3233 287° West 228 262 9,000  Level New York Center
Tue 10:03:50 AM 40.1558 -75.4094 295° West 270 311 9,000  Level New York Center
Tue 10:04:51 AM 40.1864 -75.4794 300° West 254 292 9,000  Level New York Center
Tue 10:05:51 AM 40.2186 -75.5550 299° West 241 277 9,000 252 Level New York Center
Tue 10:06:50 AM 40.2656 -75.6292 310° West 241 277 9,500 958 Climbing New York Center
Tue 10:07:50 AM 40.2989 -75.6858 308° West 222 255 10,900 1,200 Climbing New York Center
Tue 10:08:50 AM 40.3319 -75.7372 310° West 195 224 11,900 550 Climbing New York Center
Tue 10:09:50 AM 40.3675 -75.7889 312° West 195 224 12,000 347 Climbing New York Center
Tue 10:10:51 AM 40.4064 -75.8489 310° West 209 241 12,600 893 Climbing New York Center
Tue 10:11:51 AM 40.4656 -75.8778 340° North 202 232 13,800 700 Climbing New York Center
Tue 10:12:51 AM 40.5228 -75.9067 339° North 207 238 14,000 100 Climbing New York Center
Tue 10:13:51 AM 40.5881 -75.9361 341° North 231 266 14,000  Level New York Center
Tue 10:14:50 AM 40.6539 -75.9603 344° North 243 280 14,000  Level New York Center
Tue 10:15:51 AM 40.7156 -75.9786 347° North 248 285 14,000  Level New York Center
Tue 10:16:51 AM 40.7892 -76.0089 343° North 248 285 14,000  Level New York Center
Tue 10:17:51 AM 40.8544 -76.0414 339° North 253 291 14,000  Level New York Center
Tue 10:18:50 AM 40.9178 -76.0708 341° North 253 291 14,000  Level New York Center
Tue 10:19:51 AM 40.9892 -76.1039 341° North 258 297 14,000  Level New York Center
Tue 10:20:50 AM 41.0564 -76.1367 340° North 258 297 14,000  Level New York Center
Tue 10:21:51 AM 41.1261 -76.1617 345° North 258 297 14,000  Level New York Center
Tue 10:22:50 AM 41.1875 -76.1886 342° North 258 297 14,000  Level New York Center
Tue 10:23:50 AM 41.2553 -76.2106 346° North 258 297 14,000  Level New York Center
Tue 10:24:50 AM 41.3350 -76.1975 North 253 291 14,000  Level New York Center
Tue 10:25:51 AM 41.4058 -76.1950 North 258 297 14,000  Level New York Center
Tue 10:26:50 AM 41.4767 -76.1925 North 258 297 14,000 -555 Level New York Center
Tue 10:27:50 AM 41.5461 -76.1814 North 266 306 12,900 -1,350 Descending New York Center
Tue 10:28:50 AM 41.6236 -76.1683 North 279 321 11,300 -1,686 Descending New York Center
Tue 10:29:51 AM 41.7092 -76.1642 North 279 321 9,500 -1,835 Descending New York Center
Tue 10:30:51 AM 41.7828 -76.1478 North 274 315 7,600 -1,950 Descending New York Center
Tue 10:31:51 AM 41.8506 -76.1225 16° North 264 304 5,600 -1,311 Descending New York Center
Tue 10:32:50 AM 41.9117 -76.1081 10° North 245 282 5,000 -555 Descending New York Center
Tue 10:33:50 AM 41.9772 -76.0853 14° North 245 282 4,500 -694 Descending New York Center
Tue 10:34:51 AM 42.0431 -76.0572 18° North 236 272 3,600 -500 Descending New York Center
Tue 10:35:50 AM 42.0942 -76.0333 19° North 224 258 3,500 -353 Descending New York Center
Tue 10:36:50 AM 42.1336 -75.9833 43° Northeast 202 232 2,900 -550 Descending New York Center
Tue 10:37:50 AM 42.1642 -75.9522 37° Northeast 168 193 2,400 -347 Descending New York Center
Tue 10:38:51 AM 42.2031 -75.9189 32° Northeast 150 173 2,200 -197 Descending New York Center

Login

Don't have an account? Register now (free) for customized features, flight alerts, and more!